Terminal Aerodrome Forecast
Issued by NWS

Home | Current Version | Previous Version | Text Only | Print | Product List | Glossary On
Versions: 1 2 3 4 5 6 7 8 9 10 11 12 13 14 15 16 17 18 19 20 21 22 23 24 25 26 27 28 29 30 31 32 33 34 35 36 37 38 39 40 41 42 43
000
FTUS45 KBOU 181137
TAFBJC
TAF
KBJC 181137Z 1812/1912 26007KT P6SM FEW200
     FM181500 33006KT P6SM FEW150 SCT200
     FM181700 03009KT P6SM FEW090 SCT150
     FM182100 08010KT P6SM VCTS SCT080CB BKN110
      TEMPO 1821/1901 VRB20G35KT
     FM190100 14009KT P6SM SCT080 BKN110
     FM190400 20011KT P6SM FEW110 SCT220=

USA.gov is the U.S. government's official web portal to all federal, state and local government web resources and services.